Terminal Aerodrome Forecast
Issued by NWS

Home | Current Version | Previous Version | Graphics & Text | Print | Product List | Glossary On
Versions: 1 2 3 4 5 6 7 8 9 10 11 12 13 14 15 16 17 18 19 20 21 22 23 24 25 26
378
FTUS43 KTOP 150234 AAA
TAFFOE
TAF AMD
KFOE 150234Z 1503/1524 30010KT 3SM -SN OVC025
      TEMPO 1504/1508 1SM -SN OVC015
     FM150900 33012G22KT P6SM SCT030
     FM151600 33014G22KT P6SM BKN030=

USA.gov is the U.S. government's official web portal to all federal, state and local government web resources and services.